createdAt,value
2023-01-27T00:00:14.824Z,0.84
2023-01-27T00:04:18.180Z,0.83
2023-01-27T00:08:21.906Z,0.85
2023-01-27T00:12:44.397Z,0.86
2023-01-27T00:16:48.825Z,0.78
2023-01-27T00:21:09.158Z,0.75
2023-01-27T00:25:12.669Z,0.74
2023-01-27T00:29:15.615Z,0.74
2023-01-27T00:33:26.086Z,0.76
2023-01-27T00:37:29.052Z,0.79
2023-01-27T00:41:34.005Z,0.77
2023-01-27T00:45:52.668Z,0.76
2023-01-27T00:49:57.126Z,0.75
2023-01-27T00:54:03.061Z,0.72
2023-01-27T00:58:06.143Z,0.70
2023-01-27T01:02:09.208Z,0.69
2023-01-27T01:06:15.264Z,0.64
2023-01-27T01:10:18.537Z,0.59
2023-01-27T01:14:21.679Z,0.57
2023-01-27T01:18:25.481Z,0.53
2023-01-27T01:22:29.985Z,0.52
2023-01-27T01:26:32.981Z,0.51
2023-01-27T01:30:36.851Z,0.52
2023-01-27T01:34:41.851Z,0.47
2023-01-27T01:38:46.588Z,0.42
2023-01-27T01:43:01.534Z,0.38
2023-01-27T01:47:04.706Z,0.36
2023-01-27T01:51:13.512Z,0.33
2023-01-27T01:55:18.320Z,0.24
2023-01-27T01:59:29.479Z,0.28
2023-01-27T02:03:35.180Z,0.31
2023-01-27T02:07:45.155Z,0.23
2023-01-27T02:11:50.003Z,0.21
2023-01-27T02:15:55.163Z,0.28
2023-01-27T02:20:06.956Z,0.29
2023-01-27T02:24:12.953Z,0.32
2023-01-27T02:28:17.684Z,0.22
2023-01-27T02:32:25.504Z,0.17
2023-01-27T02:36:33.775Z,0.17
2023-01-27T02:40:38.644Z,0.18
2023-01-27T02:44:43.112Z,0.17
2023-01-27T02:48:46.267Z,0.16
2023-01-27T02:52:49.401Z,0.12
2023-01-27T02:56:53.055Z,0.07
2023-01-27T03:00:57.775Z,0.03
2023-01-27T03:05:00.988Z,0.01
2023-01-27T03:09:04.307Z,-0.00
2023-01-27T03:13:07.504Z,0.02
2023-01-27T03:17:29.207Z,0.07
2023-01-27T03:21:33.216Z,0.13
2023-01-27T03:25:36.689Z,0.09
2023-01-27T03:29:58.089Z,0.11
2023-01-27T03:34:03.627Z,0.05
2023-01-27T03:38:31.245Z,0.08
2023-01-27T03:42:51.483Z,0.10
2023-01-27T03:46:54.570Z,0.14
2023-01-27T03:51:00.272Z,0.11
2023-01-27T03:55:03.997Z,0.12
2023-01-27T03:59:07.311Z,0.11
2023-01-27T04:03:27.502Z,0.15
2023-01-27T04:07:31.932Z,0.20
2023-01-27T04:11:52.369Z,0.21
2023-01-27T04:15:55.991Z,0.15
2023-01-27T04:19:59.018Z,0.15
2023-01-27T04:24:04.330Z,0.17
2023-01-27T04:28:07.340Z,0.19
2023-01-27T04:32:12.077Z,0.16
2023-01-27T04:36:15.575Z,0.09
2023-01-27T04:40:20.347Z,0.11
2023-01-27T04:44:23.595Z,0.09
2023-01-27T04:48:26.745Z,0.11
2023-01-27T04:52:29.808Z,0.15
2023-01-27T04:56:36.311Z,0.16
2023-01-27T05:00:39.480Z,0.12
2023-01-27T05:04:42.568Z,0.13
2023-01-27T05:08:45.599Z,0.14
2023-01-27T05:12:50.062Z,0.10
2023-01-27T05:16:53.302Z,0.09
2023-01-27T05:20:59.993Z,0.03
2023-01-27T05:25:02.946Z,0.03
2023-01-27T05:29:07.792Z,0.03
2023-01-27T05:33:11.591Z,0.03
2023-01-27T05:37:14.602Z,0.03
2023-01-27T05:41:19.193Z,0.03
2023-01-27T05:45:23.543Z,0.03
2023-01-27T05:49:26.434Z,-0.00
2023-01-27T05:53:29.480Z,-0.02
2023-01-27T05:57:32.333Z,-0.00
2023-01-27T06:01:37.573Z,-0.09
2023-01-27T06:05:40.499Z,-0.05
2023-01-27T06:09:44.035Z,-0.07
2023-01-27T06:13:47.714Z,-0.01
2023-01-27T06:17:52.967Z,-0.08
2023-01-27T06:21:55.835Z,-0.08
2023-01-27T06:26:03.459Z,-0.08
2023-01-27T06:30:07.393Z,-0.08
2023-01-27T06:34:11.749Z,-0.09
2023-01-27T06:38:15.624Z,-0.14
2023-01-27T06:42:18.691Z,-0.11
2023-01-27T06:46:21.743Z,-0.13
2023-01-27T06:50:27.249Z,-0.13
2023-01-27T06:54:30.080Z,-0.13
2023-01-27T06:58:33.625Z,-0.14
2023-01-27T07:02:36.518Z,-0.17
2023-01-27T07:06:41.911Z,-0.17
2023-01-27T07:10:44.816Z,-0.16
2023-01-27T07:14:47.963Z,-0.17
2023-01-27T07:18:50.915Z,-0.17
2023-01-27T07:22:57.175Z,-0.17
2023-01-27T07:27:00.163Z,-0.11
2023-01-27T07:31:04.165Z,-0.16
2023-01-27T07:35:08.180Z,-0.20
2023-01-27T07:39:12.613Z,-0.17
2023-01-27T07:43:15.782Z,-0.15
2023-01-27T07:47:19.120Z,-0.21
2023-01-27T07:51:22.083Z,-0.19
2023-01-27T07:55:26.756Z,-0.21
2023-01-27T07:59:29.800Z,-0.17
2023-01-27T08:03:32.889Z,-0.14
2023-01-27T08:07:35.847Z,-0.16
2023-01-27T08:11:40.266Z,-0.13
2023-01-27T08:15:43.275Z,-0.10
2023-01-27T08:19:46.366Z,-0.09
2023-01-27T08:23:49.442Z,-0.08
2023-01-27T08:27:55.144Z,-0.07
2023-01-27T08:31:59.971Z,-0.12
2023-01-27T08:36:08.682Z,-0.09
2023-01-27T08:40:13.409Z,-0.02
2023-01-27T08:44:18.325Z,-0.03
2023-01-27T08:48:22.785Z,-0.02
2023-01-27T08:52:27.705Z,-0.04
2023-01-27T08:56:30.837Z,-0.01
2023-01-27T09:00:35.325Z,-0.01
2023-01-27T09:04:41.952Z,0.05
2023-01-27T09:09:06.311Z,0.03
2023-01-27T09:13:10.467Z,0.06
2023-01-27T09:17:19.573Z,0.07
2023-01-27T09:21:22.730Z,0.07
2023-01-27T09:25:25.923Z,0.09
2023-01-27T09:29:29.364Z,0.11
2023-01-27T09:33:33.861Z,0.10
2023-01-27T09:37:43.858Z,0.13
2023-01-27T09:42:14.177Z,0.12
2023-01-27T09:46:37.848Z,0.09
2023-01-27T09:50:47.340Z,0.13
2023-01-27T09:54:59.657Z,0.12
2023-01-27T09:59:21.117Z,0.13
2023-01-27T10:03:43.809Z,0.17
2023-01-27T10:08:10.210Z,0.22
2023-01-27T10:12:32.976Z,0.19
2023-01-27T10:16:53.487Z,0.14
2023-01-27T10:21:05.622Z,0.12
2023-01-27T10:25:23.908Z,0.12
2023-01-27T10:29:31.993Z,0.08
2023-01-27T10:33:49.309Z,0.01
2023-01-27T10:38:06.897Z,0.04
2023-01-27T10:42:21.745Z,0.03
2023-01-27T10:46:36.321Z,0.00
2023-01-27T10:50:43.398Z,-0.03
2023-01-27T10:54:53.771Z,-0.02
2023-01-27T10:59:05.146Z,-0.02
2023-01-27T11:03:13.981Z,-0.09
2023-01-27T11:07:20.164Z,-0.12
2023-01-27T11:11:43.981Z,-0.12
2023-01-27T11:15:48.983Z,-0.14
2023-01-27T11:20:01.413Z,-0.10
2023-01-27T11:24:17.773Z,-0.06
2023-01-27T11:28:32.251Z,-0.06
2023-01-27T11:32:44.405Z,-0.08
2023-01-27T11:36:49.842Z,-0.04
2023-01-27T11:40:54.430Z,-0.07
2023-01-27T11:44:58.900Z,-0.09
2023-01-27T11:49:04.052Z,-0.10
2023-01-27T11:53:15.670Z,-0.08
2023-01-27T11:57:22.266Z,-0.06
2023-01-27T12:01:34.967Z,-0.02
2023-01-27T12:05:44.725Z,0.02
2023-01-27T12:09:49.089Z,0.05
2023-01-27T12:13:55.191Z,0.07
2023-01-27T12:18:02.136Z,0.14
2023-01-27T12:22:15.928Z,0.17
2023-01-27T12:26:31.539Z,0.22
2023-01-27T12:30:40.176Z,0.23
2023-01-27T12:34:48.043Z,0.30
2023-01-27T12:38:54.690Z,0.38
2023-01-27T12:43:13.674Z,0.39
2023-01-27T12:47:24.795Z,0.34
2023-01-27T12:51:41.068Z,0.37
2023-01-27T12:55:51.792Z,0.41
2023-01-27T12:59:58.157Z,0.42
2023-01-27T13:04:05.305Z,0.39
2023-01-27T13:08:16.427Z,0.35
2023-01-27T13:12:23.420Z,0.34
2023-01-27T13:16:29.049Z,0.35
2023-01-27T13:20:42.760Z,0.32
2023-01-27T13:24:51.446Z,0.28
2023-01-27T13:29:00.913Z,0.26
2023-01-27T13:33:12.744Z,0.29
2023-01-27T13:37:19.425Z,0.23
2023-01-27T13:41:28.852Z,0.31
2023-01-27T13:45:40.322Z,0.24
2023-01-27T13:49:46.806Z,0.11
2023-01-27T13:53:58.276Z,0.06
2023-01-27T13:58:10.572Z,-0.02
2023-01-27T14:02:30.944Z,-0.10
2023-01-27T14:06:47.568Z,-0.12
2023-01-27T14:11:06.047Z,-0.12
2023-01-27T14:15:27.505Z,-0.13
2023-01-27T14:19:44.405Z,-0.14
2023-01-27T14:23:54.443Z,-0.13
2023-01-27T14:28:10.031Z,-0.16
2023-01-27T14:32:23.308Z,-0.23
2023-01-27T14:36:32.266Z,-0.25
2023-01-27T14:40:46.248Z,-0.30
2023-01-27T14:45:01.276Z,-0.32
2023-01-27T14:49:12.969Z,-0.33
2023-01-27T14:53:33.082Z,-0.35
2023-01-27T14:57:45.231Z,-0.36
2023-01-27T15:01:56.465Z,-0.38
2023-01-27T15:06:04.574Z,-0.42
2023-01-27T15:10:22.411Z,-0.48
2023-01-27T15:14:46.961Z,-0.56
2023-01-27T15:19:28.870Z,-0.56
2023-01-27T15:24:05.777Z,-0.60
2023-01-27T15:28:14.402Z,-0.55
2023-01-27T15:32:37.464Z,-0.64
2023-01-27T15:36:58.965Z,-0.70
2023-01-27T15:41:12.800Z,-0.74
2023-01-27T15:45:30.791Z,-0.78
2023-01-27T15:49:38.604Z,-0.80
2023-01-27T15:53:46.456Z,-0.80
2023-01-27T15:57:54.768Z,-0.87
2023-01-27T16:02:06.473Z,-0.84
2023-01-27T16:06:15.755Z,-0.89
2023-01-27T16:10:22.512Z,-0.93
2023-01-27T16:14:45.271Z,-0.96
2023-01-27T16:18:54.721Z,-0.96
2023-01-27T16:23:01.990Z,-0.99
2023-01-27T16:27:08.956Z,-0.99
2023-01-27T16:31:17.470Z,-1.01
2023-01-27T16:35:22.987Z,-1.02
2023-01-27T16:39:33.563Z,-1.06
2023-01-27T16:43:46.721Z,-1.13
2023-01-27T16:47:54.400Z,-1.20
2023-01-27T16:52:01.580Z,-1.22
2023-01-27T16:56:06.014Z,-1.27
2023-01-27T17:00:20.132Z,-1.26
2023-01-27T17:04:26.433Z,-1.27
2023-01-27T17:08:35.653Z,-1.28
2023-01-27T17:12:43.203Z,-1.25
2023-01-27T17:16:48.777Z,-1.24
2023-01-27T17:20:52.250Z,-1.19
2023-01-27T17:25:03.153Z,-1.19
2023-01-27T17:29:06.351Z,-1.17
2023-01-27T17:33:17.963Z,-1.14
2023-01-27T17:37:22.561Z,-1.13
2023-01-27T17:41:31.162Z,-1.08
2023-01-27T17:45:34.383Z,-1.10
2023-01-27T17:49:40.877Z,-1.15
2023-01-27T17:53:44.234Z,-1.26
2023-01-27T17:57:51.612Z,-1.27
2023-01-27T18:01:56.424Z,-1.31
2023-01-27T18:05:59.799Z,-1.34
2023-01-27T18:10:12.840Z,-1.34
2023-01-27T18:14:21.131Z,-1.40
2023-01-27T18:18:26.792Z,-1.38
2023-01-27T18:22:29.946Z,-1.38
2023-01-27T18:26:40.596Z,-1.40
2023-01-27T18:30:49.250Z,-1.42
2023-01-27T18:34:53.673Z,-1.43
2023-01-27T18:38:56.758Z,-1.43
2023-01-27T18:43:00.105Z,-1.41
2023-01-27T18:47:26.832Z,-1.35
2023-01-27T18:51:29.875Z,-1.36
2023-01-27T18:55:32.980Z,-1.36
2023-01-27T18:59:35.965Z,-1.36
2023-01-27T19:03:40.471Z,-1.37
2023-01-27T19:07:43.465Z,-1.39
2023-01-27T19:11:46.474Z,-1.37
2023-01-27T19:15:51.667Z,-1.39
2023-01-27T19:19:56.214Z,-1.38
2023-01-27T19:23:59.277Z,-1.44
2023-01-27T19:28:05.844Z,-1.48
2023-01-27T19:32:12.800Z,-1.37
2023-01-27T19:36:25.426Z,-1.20
2023-01-27T19:40:29.894Z,-1.33
2023-01-27T19:44:32.987Z,-1.38
2023-01-27T19:48:36.208Z,-1.33
2023-01-27T19:52:40.668Z,-1.39
2023-01-27T19:56:44.604Z,-1.37
2023-01-27T20:00:47.672Z,-1.38
2023-01-27T20:04:50.628Z,-1.40
2023-01-27T20:08:56.105Z,-1.46
2023-01-27T20:13:00.593Z,-1.49
2023-01-27T20:17:03.641Z,-1.43
2023-01-27T20:21:06.623Z,-1.47
2023-01-27T20:25:15.465Z,-1.48
2023-01-27T20:29:18.745Z,-1.48
2023-01-27T20:33:21.879Z,-1.48
2023-01-27T20:37:24.875Z,-1.50
2023-01-27T20:41:29.289Z,-1.52
2023-01-27T20:45:32.555Z,-1.53
2023-01-27T20:49:36.517Z,-1.51
2023-01-27T20:53:45.182Z,-1.52
2023-01-27T20:57:50.064Z,-1.51
2023-01-27T21:01:53.061Z,-1.51
2023-01-27T21:05:56.108Z,-1.54
2023-01-27T21:09:59.123Z,-1.55
2023-01-27T21:14:03.602Z,-1.58
2023-01-27T21:18:06.668Z,-1.61
2023-01-27T21:22:09.728Z,-1.58
2023-01-27T21:26:13.900Z,-1.60
2023-01-27T21:30:18.971Z,-1.61
2023-01-27T21:34:22.911Z,-1.63
2023-01-27T21:38:25.969Z,-1.58
2023-01-27T21:42:46.482Z,-1.61
2023-01-27T21:46:51.009Z,-1.57
2023-01-27T21:50:54.264Z,-1.55
2023-01-27T21:54:57.400Z,-1.58
2023-01-27T21:59:01.072Z,-1.56
2023-01-27T22:03:05.655Z,-1.60
2023-01-27T22:07:10.013Z,-1.58
2023-01-27T22:11:13.710Z,-1.52
2023-01-27T22:15:18.653Z,-1.51
2023-01-27T22:19:23.150Z,-1.51
2023-01-27T22:23:26.183Z,-1.49
2023-01-27T22:27:29.258Z,-1.49
2023-01-27T22:31:32.335Z,-1.45
2023-01-27T22:35:36.965Z,-1.45
2023-01-27T22:39:42.187Z,-1.45
2023-01-27T22:43:45.245Z,-1.42
2023-01-27T22:47:49.485Z,-1.42
2023-01-27T22:51:54.155Z,-1.41
2023-01-27T22:55:58.334Z,-1.40
2023-01-27T23:00:01.492Z,-1.41
2023-01-27T23:04:04.556Z,-1.41
2023-01-27T23:08:09.149Z,-1.38
2023-01-27T23:12:12.123Z,-1.40
2023-01-27T23:16:15.253Z,-1.39
2023-01-27T23:20:18.924Z,-1.40
2023-01-27T23:24:23.386Z,-1.37
2023-01-27T23:28:27.301Z,-1.38
2023-01-27T23:32:30.673Z,-1.34
2023-01-27T23:36:33.864Z,-1.37
2023-01-27T23:40:39.492Z,-1.37
2023-01-27T23:44:42.465Z,-1.40
2023-01-27T23:48:49.681Z,-1.39
2023-01-27T23:52:53.085Z,-1.42
2023-01-27T23:56:57.522Z,-1.42
